Time;durP1;ratioP1;P1;durP2;ratioP2;P2;SDS_P1;SDS_P2;PMS_P1;PMS_P2;Temp;Humidity;BMP_temperature;BMP_pressure;BME280_temperature;BME280_humidity;BME280_pressure;Samples;Min_cycle;Max_cycle;Signal;HPM_P1;HPM_P2
2021/05/07 17:07:05;;;;;;;1999.90;999.90;;;;;;;23.26;38.59;94981.38;5088817;27;20541;-65
2021/05/07 17:09:32;;;;;;;1999.90;999.90;;;;;;;23.02;38.32;94982.22;5087671;28;20226;-65
2021/05/07 17:11:59;;;;;;;1999.90;999.90;;;;;;;22.88;37.81;94977.72;5087724;28;20686;-65
2021/05/07 17:14:26;;;;;;;1999.90;999.90;;;;;;;22.74;35.69;94983.09;5087738;28;20290;-65
2021/05/07 17:16:52;;;;;;;1999.90;999.90;;;;;;;22.54;34.35;94984.63;5087423;28;20227;-66
2021/05/07 17:19:20;;;;;;;1999.90;999.90;;;;;;;22.42;34.91;94993.72;5087617;28;20192;-65
2021/05/07 17:21:47;;;;;;;1999.90;999.90;;;;;;;22.29;34.63;94988.06;5087247;28;20192;-65
2021/05/07 17:24:15;;;;;;;1999.90;999.90;;;;;;;22.06;34.63;94993.00;5087805;28;20203;-64
2021/05/07 17:26:42;;;;;;;1999.90;999.90;;;;;;;21.83;35.27;94992.56;5087285;28;20228;-64
2021/05/07 17:29:08;;;;;;;1999.90;999.90;;;;;;;21.71;35.44;94995.59;5087456;28;20271;-64
2021/05/07 17:31:36;;;;;;;1999.90;999.90;;;;;;;21.50;35.36;94998.97;5087414;28;20203;-64
2021/05/07 17:34:07;;;;;;;1999.90;999.90;;;;;;;21.26;35.84;94999.66;5087304;28;20243;-65
2021/05/07 17:36:34;;;;;;;1999.90;999.90;;;;;;;21.13;35.93;95001.84;5087081;28;20256;-65
2021/05/07 17:39:02;;;;;;;1999.90;999.90;;;;;;;20.93;36.59;94998.75;5087156;28;20275;-65
2021/05/07 17:41:30;;;;;;;1999.90;999.90;;;;;;;20.85;37.56;95007.00;5087009;28;20199;-65
2021/05/07 17:43:58;;;;;;;1999.90;999.90;;;;;;;20.68;37.64;95007.66;5087036;28;20211;-64
2021/05/07 17:46:26;;;;;;;1999.90;999.90;;;;;;;20.47;37.48;95014.31;5086974;28;20231;-65
2021/05/07 17:48:53;;;;;;;1999.90;999.90;;;;;;;20.33;38.68;95024.78;5086905;28;20196;-65
2021/05/07 17:51:21;;;;;;;1999.90;999.90;;;;;;;20.15;38.83;95021.25;5087494;28;20208;-64
2021/05/07 17:53:47;;;;;;;1999.90;999.90;;;;;;;19.96;39.47;95021.47;5087006;28;20200;-65
2021/05/07 17:56:15;;;;;;;1999.90;999.90;;;;;;;19.84;40.33;95017.22;5086814;28;20551;-64
2021/05/07 17:58:42;;;;;;;1999.90;999.90;;;;;;;19.68;40.67;95022.72;5086880;28;20192;-65
2021/05/07 18:01:09;;;;;;;1999.90;999.90;;;;;;;19.38;40.59;95027.28;5086738;28;20659;-65
2021/05/07 18:03:36;;;;;;;1999.90;999.90;;;;;;;19.44;40.56;95027.72;5086540;28;20573;-65
2021/05/07 18:06:03;;;;;;;1999.90;999.90;;;;;;;19.41;41.12;95029.19;5086477;28;20233;-64
2021/05/07 18:08:30;;;;;;;1999.90;999.90;;;;;;;19.20;41.68;95034.22;5086443;28;20675;-65
2021/05/07 18:10:57;;;;;;;1999.90;999.90;;;;;;;18.97;42.24;95042.25;5086743;28;20211;-64
2021/05/07 18:13:24;;;;;;;1999.90;999.90;;;;;;;18.89;42.11;95045.88;5086485;28;20192;-64
2021/05/07 18:15:51;;;;;;;1999.90;999.90;;;;;;;18.80;42.52;95046.16;5086758;28;20227;-64
2021/05/07 18:18:20;;;;;;;1999.90;999.90;;;;;;;18.61;43.11;95048.13;5073726;28;20199;-66
2021/05/07 18:20:47;;;;;;;1999.90;999.90;;;;;;;18.49;43.37;95051.69;5072971;28;20205;-64
2021/05/07 18:23:13;;;;;;;1999.90;999.90;;;;;;;18.47;42.87;95057.31;5072933;28;20275;-66
2021/05/07 18:25:40;;;;;;;1999.90;999.90;;;;;;;18.48;41.94;95061.47;5072676;28;20734;-65
2021/05/07 18:28:07;;;;;;;1999.90;999.90;;;;;;;18.46;41.83;95068.97;5072810;28;20193;-66
2021/05/07 18:30:34;;;;;;;1999.90;999.90;;;;;;;18.34;43.13;95063.88;5072681;28;20196;-64
2021/05/07 18:33:02;;;;;;;1999.90;999.90;;;;;;;18.31;42.17;95069.84;5072608;28;20235;-66
2021/05/07 18:35:30;;;;;;;1999.90;999.90;;;;;;;18.29;42.68;95066.03;5072903;28;20283;-65
2021/05/07 18:37:57;;;;;;;1999.90;999.90;;;;;;;18.27;42.57;95071.69;5072437;28;20668;-65
2021/05/07 18:40:24;;;;;;;1999.90;999.90;;;;;;;18.19;43.03;95071.88;5072594;28;20262;-65
2021/05/07 18:42:51;;;;;;;1999.90;999.90;;;;;;;18.24;43.62;95074.22;5072668;28;20199;-64
2021/05/07 18:45:18;;;;;;;1999.90;999.90;;;;;;;18.12;43.28;95077.06;5072447;28;20246;-65
2021/05/07 18:47:46;;;;;;;1999.90;999.90;;;;;;;18.16;43.36;95077.88;5072703;28;20249;-64
2021/05/07 18:50:15;;;;;;;1999.90;999.90;;;;;;;18.14;42.50;95077.44;5072535;28;20201;-65
2021/05/07 18:52:44;;;;;;;1999.90;999.90;;;;;;;18.26;41.76;95087.81;5072449;28;20271;-67
2021/05/07 18:55:12;;;;;;;1999.90;999.90;;;;;;;18.18;42.18;95086.19;5072368;28;20579;-66
2021/05/07 18:57:39;;;;;;;1999.90;999.90;;;;;;;18.01;42.49;95092.66;5072128;28;20192;-66
2021/05/07 19:00:10;;;;;;;1999.90;999.90;;;;;;;17.42;46.73;95088.56;5072478;28;20280;-66
2021/05/07 19:02:38;;;;;;;1999.90;999.90;;;;;;;17.27;45.96;95097.25;5072239;28;20684;-65
2021/05/07 19:05:06;;;;;;;1999.90;999.90;;;;;;;17.37;45.56;95101.97;5071820;28;20266;-64
2021/05/07 19:07:34;;;;;;;1999.90;999.90;;;;;;;17.43;45.46;95090.06;5072217;28;20204;-66
2021/05/07 19:10:01;;;;;;;1999.90;999.90;;;;;;;17.52;44.37;95098.50;5071903;28;20287;-65
2021/05/07 19:12:28;;;;;;;1999.90;999.90;;;;;;;17.65;44.69;95093.88;5072006;28;20196;-66
2021/05/07 19:14:55;;;;;;;1999.90;999.90;;;;;;;17.58;44.96;95091.09;5072276;28;20197;-65
2021/05/07 19:17:22;;;;;;;1999.90;999.90;;;;;;;17.61;46.31;95091.19;5071682;28;20266;-65
2021/05/07 19:19:49;;;;;;;1999.90;999.90;;;;;;;17.67;46.92;95090.91;5071808;28;20258;-64
2021/05/07 19:22:16;;;;;;;1999.90;999.90;;;;;;;17.70;47.50;95093.59;5071711;28;20212;-66
2021/05/07 19:24:44;;;;;;;1999.90;999.90;;;;;;;17.55;49.44;95095.16;5071615;28;20656;-64
2021/05/07 19:27:11;;;;;;;1999.90;999.90;;;;;;;17.52;49.48;95095.88;5071676;28;20231;-65
2021/05/07 19:29:38;;;;;;;1999.90;999.90;;;;;;;17.66;49.72;95092.78;5070537;28;20523;-65
2021/05/07 19:32:05;;;;;;;1999.90;999.90;;;;;;;17.79;48.27;95086.25;5071439;28;20228;-65
2021/05/07 19:34:32;;;;;;;1999.90;999.90;;;;;;;18.13;44.99;95076.72;5071442;28;20195;-66
2021/05/07 19:36:59;;;;;;;1999.90;999.90;;;;;;;18.20;45.22;95083.94;5071505;28;20203;-66
2021/05/07 19:39:26;;;;;;;1999.90;999.90;;;;;;;18.29;45.53;95087.84;5071204;28;20209;-66
2021/05/07 19:41:54;;;;;;;1999.90;999.90;;;;;;;18.31;45.99;95090.91;5071654;28;20195;-65
2021/05/07 19:44:21;;;;;;;1999.90;999.90;;;;;;;18.37;45.96;95094.75;5071240;28;20231;-66
2021/05/07 19:46:48;;;;;;;1999.90;999.90;;;;;;;18.21;45.41;95093.34;5071158;28;20351;-66
2021/05/07 19:49:15;;;;;;;1999.90;999.90;;;;;;;18.24;45.77;95103.16;5071196;28;20696;-66
2021/05/07 19:51:42;;;;;;;1999.90;999.90;;;;;;;18.28;47.39;95096.13;5071030;28;20199;-66
2021/05/07 19:54:09;;;;;;;1999.90;999.90;;;;;;;18.38;47.05;95098.88;5071266;28;20574;-66
2021/05/07 19:56:37;;;;;;;1999.90;999.90;;;;;;;18.27;47.01;95094.59;5071163;28;20719;-66
2021/05/07 19:59:05;;;;;;;1999.90;999.90;;;;;;;18.37;46.92;95094.00;5071239;28;20299;-65
2021/05/07 20:01:33;;;;;;;1999.90;999.90;;;;;;;18.19;47.34;95098.19;5070993;28;20199;-65
2021/05/07 20:03:59;;;;;;;1999.90;999.90;;;;;;;18.24;48.75;95090.78;5070887;28;20215;-64
2021/05/07 20:06:32;;;;;;;1999.90;999.90;;;;;;;18.36;48.76;95098.50;5070437;28;20264;-66
2021/05/07 20:08:59;;;;;;;1999.90;999.90;;;;;;;18.27;48.72;95095.34;5071059;28;20288;-65
2021/05/07 20:11:25;;;;;;;1999.90;999.90;;;;;;;18.31;48.83;95106.69;5070674;28;20222;-66
2021/05/07 20:13:52;;;;;;;1999.90;999.90;;;;;;;18.30;49.35;95120.19;5070634;28;20196;-66
2021/05/07 20:16:20;;;;;;;1999.90;999.90;;;;;;;18.09;50.90;95120.56;5070830;28;20311;-65
2021/05/07 20:18:47;;;;;;;1999.90;999.90;;;;;;;17.77;52.36;95119.25;5070558;28;20197;-66
2021/05/07 20:21:14;;;;;;;1999.90;999.90;;;;;;;17.71;52.53;95112.75;5070483;28;20737;-65
2021/05/07 20:23:41;;;;;;;1999.90;999.90;;;;;;;17.67;52.61;95117.97;5070628;28;20200;-65
2021/05/07 20:26:08;;;;;;;1999.90;999.90;;;;;;;17.63;52.46;95120.50;5070535;28;20603;-64
2021/05/07 20:28:35;;;;;;;1999.90;999.90;;;;;;;17.59;53.12;95113.66;5070670;28;20204;-65
2021/05/07 20:31:02;;;;;;;1999.90;999.90;;;;;;;17.47;53.84;95113.78;5070462;28;20195;-64
2021/05/07 20:33:32;;;;;;;1999.90;999.90;;;;;;;17.44;54.18;95114.44;5070457;28;20200;-64
2021/05/07 20:35:59;;;;;;;1999.90;999.90;;;;;;;17.32;55.00;95111.97;5070492;28;20287;-65
2021/05/07 20:38:27;;;;;;;1999.90;999.90;;;;;;;17.19;55.60;95112.09;5070316;28;20216;-65
2021/05/07 20:40:54;;;;;;;1999.90;999.90;;;;;;;17.09;55.73;95117.13;5070227;28;20275;-64
2021/05/07 20:43:21;;;;;;;1999.90;999.90;;;;;;;17.10;55.68;95116.78;5070238;28;20201;-64
2021/05/07 20:45:49;;;;;;;1999.90;999.90;;;;;;;17.17;54.95;95114.31;5070289;28;20307;-64
2021/05/07 20:48:16;;;;;;;1999.90;999.90;;;;;;;17.23;54.45;95122.69;5070328;28;20725;-65
2021/05/07 20:50:44;;;;;;;1999.90;999.90;;;;;;;17.36;53.72;95120.69;5070229;28;20659;-65
2021/05/07 20:53:11;;;;;;;1999.90;999.90;;;;;;;17.32;53.65;95125.88;5070291;28;20192;-66
2021/05/07 20:55:38;;;;;;;1999.90;999.90;;;;;;;17.34;53.48;95117.63;5070049;28;20188;-65
2021/05/07 20:58:05;;;;;;;1999.90;999.90;;;;;;;17.38;53.94;95115.84;5070168;28;20192;-65
2021/05/07 21:00:32;;;;;;;1999.90;999.90;;;;;;;17.31;55.11;95120.97;5070051;28;20522;-64
2021/05/07 21:03:05;;;;;;;1999.90;999.90;;;;;;;17.12;56.47;95117.22;5070667;28;20215;-66
2021/05/07 21:05:32;;;;;;;1999.90;999.90;;;;;;;17.08;56.01;95121.63;5069880;28;20351;-65
2021/05/07 21:08:00;;;;;;;1999.90;999.90;;;;;;;17.09;56.14;95120.50;5069891;28;20580;-65
2021/05/07 21:10:27;;;;;;;1999.90;999.90;;;;;;;17.01;55.89;95118.84;5069893;28;20677;-65
2021/05/07 21:12:54;;;;;;;1999.90;999.90;;;;;;;17.05;55.38;95111.03;5069968;28;21327;-65
2021/05/07 21:15:21;;;;;;;1999.90;999.90;;;;;;;17.18;54.12;95117.72;5069662;28;20192;-65
2021/05/07 21:17:48;;;;;;;1999.90;999.90;;;;;;;17.23;55.45;95111.41;5070094;28;20188;-66
2021/05/07 21:20:15;;;;;;;1999.90;999.90;;;;;;;17.54;54.64;95121.78;5070128;28;20196;-66
2021/05/07 21:22:42;;;;;;;1999.90;999.90;;;;;;;17.68;53.21;95123.97;5070075;28;20197;-66
2021/05/07 21:25:11;;;;;;;1999.90;999.90;;;;;;;17.57;53.51;95121.13;5069898;28;20300;-66
2021/05/07 21:27:38;;;;;;;1999.90;999.90;;;;;;;17.48;53.76;95125.81;5069843;28;20222;-66
2021/05/07 21:30:06;;;;;;;1999.90;999.90;;;;;;;17.34;54.63;95128.13;5069781;28;20203;-65
2021/05/07 21:32:33;;;;;;;1999.90;999.90;;;;;;;17.30;54.52;95130.69;5069849;28;20197;-65
2021/05/07 21:35:02;;;;;;;1999.90;999.90;;;;;;;17.37;54.81;95132.72;5069728;28;20202;-64
2021/05/07 21:37:29;;;;;;;1999.90;999.90;;;;;;;17.39;53.56;95133.13;5069873;28;20197;-66
2021/05/07 21:39:56;;;;;;;1999.90;999.90;;;;;;;17.29;54.11;95147.56;5070189;28;20275;-66
2021/05/07 21:42:23;;;;;;;1999.90;999.90;;;;;;;16.95;55.69;95156.97;5069547;28;20203;-65
2021/05/07 21:44:50;;;;;;;1999.90;999.90;;;;;;;16.88;54.89;95156.06;5069946;28;20680;-65
2021/05/07 21:47:17;;;;;;;1999.90;999.90;;;;;;;16.77;55.85;95153.94;5069505;28;20235;-65
2021/05/07 21:49:44;;;;;;;1999.90;999.90;;;;;;;16.72;55.43;95158.69;5069503;28;20204;-65
2021/05/07 21:52:10;;;;;;;1999.90;999.90;;;;;;;16.76;55.55;95156.91;5070934;28;20544;-65
2021/05/07 21:54:37;;;;;;;1999.90;999.90;;;;;;;16.60;55.63;95164.78;5073307;28;20691;-65
2021/05/07 21:57:04;;;;;;;1999.90;999.90;;;;;;;16.45;56.50;95156.88;5073235;28;20193;-65
2021/05/07 21:59:32;;;;;;;1999.90;999.90;;;;;;;16.46;57.22;95151.28;5073434;28;20651;-64
2021/05/07 22:02:00;;;;;;;1999.90;999.90;;;;;;;16.54;57.11;95154.84;5073205;28;20784;-65
2021/05/07 22:04:27;;;;;;;1999.90;999.90;;;;;;;16.56;56.95;95163.91;5073069;28;20203;-64
2021/05/07 22:06:54;;;;;;;1999.90;999.90;;;;;;;16.53;57.41;95163.84;5072883;28;20266;-64
2021/05/07 22:09:21;;;;;;;1999.90;999.90;;;;;;;16.26;58.37;95171.41;5073237;28;20289;-64
2021/05/07 22:11:48;;;;;;;1999.90;999.90;;;;;;;16.08;59.04;95170.22;5072932;28;20663;-64
2021/05/07 22:14:15;;;;;;;1999.90;999.90;;;;;;;15.94;59.37;95175.06;5073040;28;20196;-64
2021/05/07 22:16:43;;;;;;;1999.90;999.90;;;;;;;15.91;59.88;95170.50;5072754;28;20707;-66
2021/05/07 22:19:09;;;;;;;1999.90;999.90;;;;;;;15.64;61.32;95173.91;5072818;28;20196;-64
2021/05/07 22:21:37;;;;;;;1999.90;999.90;;;;;;;15.32;62.67;95175.56;5072742;28;20193;-67
2021/05/07 22:24:08;;;;;;;1999.90;999.90;;;;;;;15.34;62.81;95170.78;5072878;28;20192;-66
2021/05/07 22:26:34;;;;;;;1999.90;999.90;;;;;;;15.34;62.73;95174.13;5072697;28;20239;-65
2021/05/07 22:29:01;;;;;;;1999.90;999.90;;;;;;;15.20;63.04;95178.19;5072787;28;20539;-64
2021/05/07 22:31:28;;;;;;;1999.90;999.90;;;;;;;15.18;63.17;95181.16;5072802;28;20290;-65
2021/05/07 22:33:56;;;;;;;1999.90;999.90;;;;;;;15.16;63.81;95178.09;5072687;28;20195;-66
2021/05/07 22:36:23;;;;;;;1999.90;999.90;;;;;;;15.03;63.90;95171.38;5072609;28;20242;-65
2021/05/07 22:38:50;;;;;;;1999.90;999.90;;;;;;;14.92;64.03;95170.28;5072448;28;20203;-64
2021/05/07 22:41:17;;;;;;;1999.90;999.90;;;;;;;14.94;64.01;95175.97;5072618;28;20200;-65
2021/05/07 22:43:44;;;;;;;1999.90;999.90;;;;;;;14.91;64.27;95177.38;5072607;28;20295;-65
2021/05/07 22:46:10;;;;;;;1999.90;999.90;;;;;;;14.81;65.05;95175.19;5072518;28;20224;-65
2021/05/07 22:48:37;;;;;;;1999.90;999.90;;;;;;;14.73;65.58;95170.06;5072417;28;20330;-65
2021/05/07 22:51:06;;;;;;;1999.90;999.90;;;;;;;14.61;66.03;95170.81;5072111;28;20675;-63
2021/05/07 22:53:33;;;;;;;1999.90;999.90;;;;;;;14.56;66.27;95173.66;5072259;28;20261;-64
2021/05/07 22:55:59;;;;;;;1999.90;999.90;;;;;;;14.52;66.29;95176.16;5072334;28;20184;-65
2021/05/07 22:58:26;;;;;;;1999.90;999.90;;;;;;;14.46;66.51;95172.22;5072380;28;20197;-63
2021/05/07 23:00:53;;;;;;;1999.90;999.90;;;;;;;14.47;66.22;95186.81;5072129;28;20719;-64
2021/05/07 23:03:20;;;;;;;1999.90;999.90;;;;;;;14.49;65.86;95184.66;5071860;28;20192;-65
2021/05/07 23:05:48;;;;;;;1999.90;999.90;;;;;;;14.59;64.81;95188.69;5071689;28;20277;-65
2021/05/07 23:08:17;;;;;;;1999.90;999.90;;;;;;;14.78;63.84;95183.69;5072483;28;20656;-66
2021/05/07 23:10:44;;;;;;;1999.90;999.90;;;;;;;14.71;63.47;95188.69;5072106;28;20196;-65
2021/05/07 23:13:10;;;;;;;1999.90;999.90;;;;;;;14.92;62.93;95191.97;5071978;28;20224;-67
2021/05/07 23:15:37;;;;;;;1999.90;999.90;;;;;;;15.02;62.05;95186.31;5072137;28;20224;-65
2021/05/07 23:18:04;;;;;;;1999.90;999.90;;;;;;;15.09;62.21;95189.13;5071632;28;20193;-64
2021/05/07 23:20:31;;;;;;;1999.90;999.90;;;;;;;15.14;61.29;95190.78;5071820;28;20681;-65
2021/05/07 23:22:58;;;;;;;1999.90;999.90;;;;;;;15.24;60.58;95194.81;5071615;28;20196;-65
2021/05/07 23:25:26;;;;;;;1999.90;999.90;;;;;;;15.22;60.66;95194.34;5071448;28;20193;-66
2021/05/07 23:27:53;;;;;;;1999.90;999.90;;;;;;;15.25;60.40;95191.84;5071680;28;20204;-65
2021/05/07 23:30:20;;;;;;;1999.90;999.90;;;;;;;15.17;60.85;95191.97;5071602;28;20228;-65
2021/05/07 23:32:47;;;;;;;1999.90;999.90;;;;;;;15.04;61.49;95196.47;5071457;28;20253;-65
2021/05/07 23:35:14;;;;;;;1999.90;999.90;;;;;;;14.88;62.24;95203.44;5071992;28;20297;-65
2021/05/07 23:37:41;;;;;;;1999.90;999.90;;;;;;;14.72;64.07;95200.69;5071350;28;20200;-64
2021/05/07 23:40:10;;;;;;;1999.90;999.90;;;;;;;14.51;64.87;95206.00;5071380;28;20199;-66
2021/05/07 23:42:38;;;;;;;1999.90;999.90;;;;;;;14.20;66.92;95206.44;5071465;28;20623;-65
2021/05/07 23:45:06;;;;;;;1999.90;999.90;;;;;;;14.05;67.70;95211.50;5071166;28;20192;-65
2021/05/07 23:47:33;;;;;;;1999.90;999.90;;;;;;;13.88;68.52;95219.50;5070957;28;20319;-65
2021/05/07 23:50:00;;;;;;;1999.90;999.90;;;;;;;13.71;69.26;95229.00;5071351;28;20193;-64
2021/05/07 23:52:27;;;;;;;1999.90;999.90;;;;;;;13.60;69.94;95227.09;5071234;28;20298;-65
2021/05/07 23:54:54;;;;;;;1999.90;999.90;;;;;;;13.46;70.68;95229.19;5071330;28;20261;-66
2021/05/07 23:57:20;;;;;;;1999.90;999.90;;;;;;;13.24;70.88;95232.88;5071035;28;20192;-64
2021/05/07 23:59:48;;;;;;;1999.90;999.90;;;;;;;13.00;72.11;95232.66;5071030;28;20653;-65
